sensor_id;sensor_type;location;lat;lon;timestamp;P1;durP1;ratioP1;P2;durP2;ratioP2
25731;SDS011;13585;50.864;4.406;2023-03-23T00:10:18;2.92;;;1.98;;
25731;SDS011;13585;50.864;4.406;2023-03-23T00:12:56;3.42;;;2.08;;
25731;SDS011;13585;50.864;4.406;2023-03-23T00:15:37;3.22;;;2.20;;
25731;SDS011;13585;50.864;4.406;2023-03-23T00:18:06;3.78;;;2.30;;
25731;SDS011;13585;50.864;4.406;2023-03-23T00:20:45;4.85;;;2.15;;
25731;SDS011;13585;50.864;4.406;2023-03-23T00:23:13;3.47;;;2.10;;
25731;SDS011;13585;50.864;4.406;2023-03-23T00:25:46;3.72;;;1.98;;
25731;SDS011;13585;50.864;4.406;2023-03-23T00:28:14;3.10;;;1.90;;
25731;SDS011;13585;50.864;4.406;2023-03-23T00:30:40;2.97;;;2.00;;
25731;SDS011;13585;50.864;4.406;2023-03-23T00:33:09;2.55;;;1.80;;
25731;SDS011;13585;50.864;4.406;2023-03-23T00:35:37;2.97;;;2.10;;
25731;SDS011;13585;50.864;4.406;2023-03-23T00:38:04;2.83;;;1.98;;
25731;SDS011;13585;50.864;4.406;2023-03-23T00:40:42;2.42;;;1.95;;
25731;SDS011;13585;50.864;4.406;2023-03-23T00:43:16;3.45;;;2.10;;
25731;SDS011;13585;50.864;4.406;2023-03-23T00:45:51;2.83;;;1.85;;
25731;SDS011;13585;50.864;4.406;2023-03-23T00:48:18;2.92;;;1.73;;
25731;SDS011;13585;50.864;4.406;2023-03-23T00:50:57;2.80;;;2.03;;
25731;SDS011;13585;50.864;4.406;2023-03-23T00:53:35;2.10;;;1.75;;
25731;SDS011;13585;50.864;4.406;2023-03-23T00:56:00;4.03;;;2.35;;
25731;SDS011;13585;50.864;4.406;2023-03-23T00:58:26;3.78;;;2.30;;
25731;SDS011;13585;50.864;4.406;2023-03-23T01:01:03;2.25;;;1.88;;
25731;SDS011;13585;50.864;4.406;2023-03-23T01:06:57;2.83;;;2.03;;
25731;SDS011;13585;50.864;4.406;2023-03-23T01:10:02;2.40;;;2.00;;
25731;SDS011;13585;50.864;4.406;2023-03-23T01:20:55;2.42;;;1.80;;
25731;SDS011;13585;50.864;4.406;2023-03-23T01:23:39;2.85;;;1.70;;
25731;SDS011;13585;50.864;4.406;2023-03-23T01:26:15;3.00;;;1.90;;
25731;SDS011;13585;50.864;4.406;2023-03-23T01:28:46;3.03;;;2.10;;
25731;SDS011;13585;50.864;4.406;2023-03-23T01:31:22;2.25;;;1.90;;
25731;SDS011;13585;50.864;4.406;2023-03-23T01:36:55;2.65;;;2.15;;
25731;SDS011;13585;50.864;4.406;2023-03-23T01:39:26;1.90;;;1.70;;
25731;SDS011;13585;50.864;4.406;2023-03-23T01:41:52;2.88;;;1.88;;
25731;SDS011;13585;50.864;4.406;2023-03-23T01:46:43;2.78;;;1.98;;
25731;SDS011;13585;50.864;4.406;2023-03-23T01:49:14;2.55;;;1.95;;
25731;SDS011;13585;50.864;4.406;2023-03-23T01:51:45;3.25;;;1.85;;
25731;SDS011;13585;50.864;4.406;2023-03-23T01:54:15;2.67;;;2.00;;
25731;SDS011;13585;50.864;4.406;2023-03-23T01:56:50;2.88;;;1.63;;
25731;SDS011;13585;50.864;4.406;2023-03-23T01:59:29;2.40;;;1.80;;
25731;SDS011;13585;50.864;4.406;2023-03-23T02:01:56;1.92;;;1.48;;
25731;SDS011;13585;50.864;4.406;2023-03-23T02:04:25;2.58;;;2.13;;
25731;SDS011;13585;50.864;4.406;2023-03-23T02:06:52;1.98;;;1.65;;
25731;SDS011;13585;50.864;4.406;2023-03-23T02:09:21;1.88;;;1.70;;
25731;SDS011;13585;50.864;4.406;2023-03-23T02:11:51;2.67;;;1.92;;
25731;SDS011;13585;50.864;4.406;2023-03-23T02:14:18;2.85;;;1.67;;
25731;SDS011;13585;50.864;4.406;2023-03-23T02:16:48;2.30;;;1.70;;
25731;SDS011;13585;50.864;4.406;2023-03-23T02:19:50;2.33;;;1.50;;
25731;SDS011;13585;50.864;4.406;2023-03-23T02:22:48;2.00;;;1.55;;
25731;SDS011;13585;50.864;4.406;2023-03-23T02:28:29;3.47;;;2.00;;
25731;SDS011;13585;50.864;4.406;2023-03-23T02:36:09;2.10;;;1.75;;
25731;SDS011;13585;50.864;4.406;2023-03-23T02:38:44;2.25;;;1.60;;
25731;SDS011;13585;50.864;4.406;2023-03-23T02:41:16;2.55;;;1.52;;
25731;SDS011;13585;50.864;4.406;2023-03-23T02:43:46;2.30;;;1.90;;
25731;SDS011;13585;50.864;4.406;2023-03-23T02:46:13;2.50;;;1.98;;
25731;SDS011;13585;50.864;4.406;2023-03-23T02:48:55;2.03;;;1.63;;
25731;SDS011;13585;50.864;4.406;2023-03-23T02:51:23;2.25;;;1.40;;
25731;SDS011;13585;50.864;4.406;2023-03-23T02:54:03;1.95;;;1.50;;
25731;SDS011;13585;50.864;4.406;2023-03-23T02:56:51;2.60;;;1.85;;
25731;SDS011;13585;50.864;4.406;2023-03-23T03:03:05;2.05;;;1.70;;
25731;SDS011;13585;50.864;4.406;2023-03-23T03:11:21;2.00;;;1.48;;
25731;SDS011;13585;50.864;4.406;2023-03-23T03:16:33;2.08;;;1.50;;
25731;SDS011;13585;50.864;4.406;2023-03-23T03:21:53;2.60;;;1.80;;
25731;SDS011;13585;50.864;4.406;2023-03-23T03:24:26;1.48;;;1.38;;
25731;SDS011;13585;50.864;4.406;2023-03-23T03:26:54;1.80;;;1.60;;
25731;SDS011;13585;50.864;4.406;2023-03-23T03:29:30;2.45;;;1.67;;
25731;SDS011;13585;50.864;4.406;2023-03-23T03:31:59;2.70;;;1.63;;
25731;SDS011;13585;50.864;4.406;2023-03-23T03:34:29;2.35;;;1.67;;
25731;SDS011;13585;50.864;4.406;2023-03-23T03:36:57;3.00;;;1.85;;
25731;SDS011;13585;50.864;4.406;2023-03-23T03:39:24;2.38;;;1.50;;
25731;SDS011;13585;50.864;4.406;2023-03-23T03:41:50;1.83;;;1.40;;
25731;SDS011;13585;50.864;4.406;2023-03-23T03:44:16;1.85;;;1.33;;
25731;SDS011;13585;50.864;4.406;2023-03-23T03:46:42;2.67;;;1.50;;
25731;SDS011;13585;50.864;4.406;2023-03-23T03:49:08;1.80;;;1.50;;
25731;SDS011;13585;50.864;4.406;2023-03-23T03:51:35;2.38;;;1.42;;
25731;SDS011;13585;50.864;4.406;2023-03-23T03:54:01;1.83;;;1.40;;
25731;SDS011;13585;50.864;4.406;2023-03-23T03:56:27;1.58;;;1.38;;
25731;SDS011;13585;50.864;4.406;2023-03-23T03:58:56;1.75;;;1.38;;
25731;SDS011;13585;50.864;4.406;2023-03-23T04:01:22;3.65;;;1.50;;
25731;SDS011;13585;50.864;4.406;2023-03-23T04:03:50;1.88;;;1.42;;
25731;SDS011;13585;50.864;4.406;2023-03-23T04:06:17;2.13;;;1.60;;
25731;SDS011;13585;50.864;4.406;2023-03-23T04:08:43;1.38;;;1.27;;
25731;SDS011;13585;50.864;4.406;2023-03-23T04:11:11;2.20;;;1.60;;
25731;SDS011;13585;50.864;4.406;2023-03-23T04:13:38;1.52;;;1.23;;
25731;SDS011;13585;50.864;4.406;2023-03-23T04:16:04;2.45;;;1.40;;
25731;SDS011;13585;50.864;4.406;2023-03-23T04:18:30;2.13;;;1.30;;
25731;SDS011;13585;50.864;4.406;2023-03-23T04:20:59;1.98;;;1.27;;
25731;SDS011;13585;50.864;4.406;2023-03-23T04:23:27;3.20;;;1.38;;
25731;SDS011;13585;50.864;4.406;2023-03-23T04:25:55;2.00;;;1.50;;
25731;SDS011;13585;50.864;4.406;2023-03-23T04:28:23;1.42;;;1.25;;
25731;SDS011;13585;50.864;4.406;2023-03-23T04:30:50;2.00;;;1.30;;
25731;SDS011;13585;50.864;4.406;2023-03-23T04:33:20;1.98;;;1.42;;
25731;SDS011;13585;50.864;4.406;2023-03-23T04:35:50;2.45;;;1.60;;
25731;SDS011;13585;50.864;4.406;2023-03-23T04:38:18;1.92;;;1.30;;
25731;SDS011;13585;50.864;4.406;2023-03-23T04:40:48;1.73;;;1.30;;
25731;SDS011;13585;50.864;4.406;2023-03-23T04:43:16;1.88;;;1.40;;
25731;SDS011;13585;50.864;4.406;2023-03-23T04:45:51;2.08;;;1.35;;
25731;SDS011;13585;50.864;4.406;2023-03-23T04:48:26;1.73;;;1.30;;
25731;SDS011;13585;50.864;4.406;2023-03-23T04:50:54;2.20;;;1.50;;
25731;SDS011;13585;50.864;4.406;2023-03-23T04:53:20;2.17;;;1.30;;
25731;SDS011;13585;50.864;4.406;2023-03-23T04:55:48;3.00;;;1.33;;
25731;SDS011;13585;50.864;4.406;2023-03-23T04:58:14;1.88;;;1.45;;
25731;SDS011;13585;50.864;4.406;2023-03-23T05:00:41;1.92;;;1.30;;
25731;SDS011;13585;50.864;4.406;2023-03-23T05:03:08;1.35;;;1.05;;
25731;SDS011;13585;50.864;4.406;2023-03-23T05:05:41;2.75;;;1.50;;
25731;SDS011;13585;50.864;4.406;2023-03-23T05:08:11;1.38;;;1.20;;
25731;SDS011;13585;50.864;4.406;2023-03-23T05:10:38;1.98;;;1.20;;
25731;SDS011;13585;50.864;4.406;2023-03-23T05:13:03;3.00;;;1.33;;
25731;SDS011;13585;50.864;4.406;2023-03-23T05:15:29;2.28;;;1.20;;
25731;SDS011;13585;50.864;4.406;2023-03-23T05:17:55;2.17;;;1.25;;
25731;SDS011;13585;50.864;4.406;2023-03-23T05:20:21;3.08;;;1.40;;
25731;SDS011;13585;50.864;4.406;2023-03-23T05:22:49;2.80;;;1.20;;
25731;SDS011;13585;50.864;4.406;2023-03-23T05:25:17;2.13;;;1.30;;
25731;SDS011;13585;50.864;4.406;2023-03-23T05:27:47;2.60;;;1.38;;
25731;SDS011;13585;50.864;4.406;2023-03-23T05:30:17;1.60;;;1.30;;
25731;SDS011;13585;50.864;4.406;2023-03-23T05:32:44;2.05;;;1.30;;
25731;SDS011;13585;50.864;4.406;2023-03-23T05:35:10;2.55;;;1.58;;
25731;SDS011;13585;50.864;4.406;2023-03-23T05:37:37;2.00;;;1.20;;
25731;SDS011;13585;50.864;4.406;2023-03-23T05:40:05;1.38;;;1.08;;
25731;SDS011;13585;50.864;4.406;2023-03-23T05:42:34;2.15;;;1.40;;
25731;SDS011;13585;50.864;4.406;2023-03-23T05:45:03;2.22;;;1.48;;
25731;SDS011;13585;50.864;4.406;2023-03-23T05:47:30;2.30;;;1.42;;
25731;SDS011;13585;50.864;4.406;2023-03-23T05:49:57;1.63;;;1.02;;
25731;SDS011;13585;50.864;4.406;2023-03-23T05:52:22;2.60;;;1.13;;
25731;SDS011;13585;50.864;4.406;2023-03-23T05:54:51;2.60;;;1.35;;
25731;SDS011;13585;50.864;4.406;2023-03-23T05:57:17;3.80;;;1.27;;
25731;SDS011;13585;50.864;4.406;2023-03-23T05:59:43;2.38;;;1.30;;
25731;SDS011;13585;50.864;4.406;2023-03-23T06:02:10;2.40;;;1.42;;
25731;SDS011;13585;50.864;4.406;2023-03-23T06:04:36;1.45;;;1.20;;
25731;SDS011;13585;50.864;4.406;2023-03-23T06:07:03;2.63;;;1.40;;
25731;SDS011;13585;50.864;4.406;2023-03-23T06:09:29;1.27;;;1.10;;
25731;SDS011;13585;50.864;4.406;2023-03-23T06:11:58;2.55;;;1.40;;
25731;SDS011;13585;50.864;4.406;2023-03-23T06:14:24;2.33;;;1.40;;
25731;SDS011;13585;50.864;4.406;2023-03-23T06:16:51;1.92;;;1.40;;
25731;SDS011;13585;50.864;4.406;2023-03-23T06:19:16;2.33;;;1.25;;
25731;SDS011;13585;50.864;4.406;2023-03-23T06:21:42;1.98;;;1.30;;
25731;SDS011;13585;50.864;4.406;2023-03-23T06:24:08;3.35;;;1.48;;
25731;SDS011;13585;50.864;4.406;2023-03-23T06:26:36;1.80;;;1.33;;
25731;SDS011;13585;50.864;4.406;2023-03-23T06:29:04;1.60;;;1.00;;
25731;SDS011;13585;50.864;4.406;2023-03-23T06:31:40;2.13;;;1.27;;
25731;SDS011;13585;50.864;4.406;2023-03-23T06:34:07;2.30;;;1.35;;
25731;SDS011;13585;50.864;4.406;2023-03-23T06:36:35;1.25;;;1.08;;
25731;SDS011;13585;50.864;4.406;2023-03-23T06:39:01;1.67;;;1.30;;
25731;SDS011;13585;50.864;4.406;2023-03-23T06:41:29;1.83;;;1.10;;
25731;SDS011;13585;50.864;4.406;2023-03-23T06:43:55;2.75;;;1.50;;
25731;SDS011;13585;50.864;4.406;2023-03-23T06:46:21;4.07;;;1.60;;
25731;SDS011;13585;50.864;4.406;2023-03-23T06:48:46;2.25;;;1.30;;
25731;SDS011;13585;50.864;4.406;2023-03-23T06:51:14;2.20;;;1.30;;
25731;SDS011;13585;50.864;4.406;2023-03-23T06:53:40;2.63;;;1.23;;
25731;SDS011;13585;50.864;4.406;2023-03-23T06:56:06;1.55;;;1.17;;
25731;SDS011;13585;50.864;4.406;2023-03-23T07:01:37;1.95;;;1.20;;
25731;SDS011;13585;50.864;4.406;2023-03-23T07:04:03;2.53;;;1.25;;
25731;SDS011;13585;50.864;4.406;2023-03-23T07:06:31;1.83;;;1.35;;
25731;SDS011;13585;50.864;4.406;2023-03-23T07:08:57;2.13;;;1.27;;
25731;SDS011;13585;50.864;4.406;2023-03-23T07:11:23;2.65;;;1.30;;
25731;SDS011;13585;50.864;4.406;2023-03-23T07:13:49;2.20;;;1.23;;
25731;SDS011;13585;50.864;4.406;2023-03-23T07:16:15;1.90;;;1.20;;
25731;SDS011;13585;50.864;4.406;2023-03-23T07:18:41;1.70;;;1.30;;
25731;SDS011;13585;50.864;4.406;2023-03-23T07:21:07;2.08;;;1.20;;
25731;SDS011;13585;50.864;4.406;2023-03-23T07:23:33;2.00;;;1.33;;
25731;SDS011;13585;50.864;4.406;2023-03-23T07:25:59;2.90;;;1.38;;
25731;SDS011;13585;50.864;4.406;2023-03-23T07:28:25;1.73;;;1.30;;
25731;SDS011;13585;50.864;4.406;2023-03-23T07:30:51;3.03;;;1.50;;
25731;SDS011;13585;50.864;4.406;2023-03-23T07:33:17;1.52;;;1.30;;
25731;SDS011;13585;50.864;4.406;2023-03-23T07:35:43;2.05;;;1.40;;
25731;SDS011;13585;50.864;4.406;2023-03-23T07:38:09;1.95;;;1.23;;
25731;SDS011;13585;50.864;4.406;2023-03-23T07:40:35;2.03;;;1.20;;
25731;SDS011;13585;50.864;4.406;2023-03-23T07:43:01;1.92;;;1.20;;
25731;SDS011;13585;50.864;4.406;2023-03-23T07:45:28;1.90;;;1.38;;
25731;SDS011;13585;50.864;4.406;2023-03-23T07:47:55;1.50;;;1.35;;
25731;SDS011;13585;50.864;4.406;2023-03-23T07:50:21;2.08;;;1.40;;
25731;SDS011;13585;50.864;4.406;2023-03-23T07:52:49;2.58;;;1.73;;
25731;SDS011;13585;50.864;4.406;2023-03-23T07:55:15;2.05;;;1.40;;
25731;SDS011;13585;50.864;4.406;2023-03-23T07:57:45;2.55;;;1.30;;
25731;SDS011;13585;50.864;4.406;2023-03-23T08:00:13;2.63;;;1.08;;
25731;SDS011;13585;50.864;4.406;2023-03-23T08:02:44;2.60;;;1.17;;
25731;SDS011;13585;50.864;4.406;2023-03-23T08:05:11;2.63;;;1.30;;
25731;SDS011;13585;50.864;4.406;2023-03-23T08:07:38;2.40;;;1.20;;
25731;SDS011;13585;50.864;4.406;2023-03-23T08:10:05;1.85;;;1.48;;
25731;SDS011;13585;50.864;4.406;2023-03-23T08:12:35;2.63;;;1.15;;
25731;SDS011;13585;50.864;4.406;2023-03-23T08:15:02;2.13;;;1.33;;
25731;SDS011;13585;50.864;4.406;2023-03-23T08:17:28;2.33;;;1.30;;
25731;SDS011;13585;50.864;4.406;2023-03-23T08:19:54;1.92;;;1.00;;
25731;SDS011;13585;50.864;4.406;2023-03-23T08:22:19;2.25;;;1.00;;
25731;SDS011;13585;50.864;4.406;2023-03-23T08:24:46;1.25;;;1.05;;
25731;SDS011;13585;50.864;4.406;2023-03-23T08:27:11;1.52;;;1.17;;
25731;SDS011;13585;50.864;4.406;2023-03-23T08:29:37;3.15;;;1.40;;
25731;SDS011;13585;50.864;4.406;2023-03-23T08:32:03;2.38;;;1.40;;
25731;SDS011;13585;50.864;4.406;2023-03-23T08:34:29;2.35;;;1.10;;
25731;SDS011;13585;50.864;4.406;2023-03-23T08:36:55;1.88;;;1.20;;
25731;SDS011;13585;50.864;4.406;2023-03-23T08:39:21;2.13;;;1.30;;
25731;SDS011;13585;50.864;4.406;2023-03-23T08:41:48;1.98;;;1.15;;
25731;SDS011;13585;50.864;4.406;2023-03-23T08:44:14;1.95;;;1.40;;
25731;SDS011;13585;50.864;4.406;2023-03-23T08:46:40;1.77;;;1.33;;
25731;SDS011;13585;50.864;4.406;2023-03-23T08:49:06;2.90;;;1.40;;
25731;SDS011;13585;50.864;4.406;2023-03-23T08:51:32;2.72;;;1.50;;
25731;SDS011;13585;50.864;4.406;2023-03-23T08:53:58;3.13;;;1.50;;
25731;SDS011;13585;50.864;4.406;2023-03-23T08:56:24;2.20;;;1.17;;
25731;SDS011;13585;50.864;4.406;2023-03-23T08:58:50;3.05;;;1.52;;
25731;SDS011;13585;50.864;4.406;2023-03-23T09:01:15;1.50;;;1.00;;
25731;SDS011;13585;50.864;4.406;2023-03-23T09:03:41;2.67;;;1.20;;
25731;SDS011;13585;50.864;4.406;2023-03-23T09:06:07;3.15;;;1.05;;
25731;SDS011;13585;50.864;4.406;2023-03-23T09:08:36;2.60;;;1.40;;
25731;SDS011;13585;50.864;4.406;2023-03-23T09:11:03;3.15;;;1.30;;
25731;SDS011;13585;50.864;4.406;2023-03-23T09:13:50;3.42;;;1.00;;
25731;SDS011;13585;50.864;4.406;2023-03-23T09:16:27;1.95;;;1.30;;
25731;SDS011;13585;50.864;4.406;2023-03-23T09:18:55;1.75;;;1.17;;
25731;SDS011;13585;50.864;4.406;2023-03-23T09:24:40;1.73;;;1.10;;
25731;SDS011;13585;50.864;4.406;2023-03-23T09:27:17;1.98;;;1.20;;
25731;SDS011;13585;50.864;4.406;2023-03-23T09:29:44;2.33;;;1.20;;
25731;SDS011;13585;50.864;4.406;2023-03-23T09:32:10;1.50;;;1.17;;
25731;SDS011;13585;50.864;4.406;2023-03-23T09:34:38;2.30;;;0.85;;
25731;SDS011;13585;50.864;4.406;2023-03-23T09:37:04;1.20;;;1.10;;
25731;SDS011;13585;50.864;4.406;2023-03-23T09:39:31;2.50;;;1.33;;
25731;SDS011;13585;50.864;4.406;2023-03-23T09:47:44;2.08;;;1.15;;
25731;SDS011;13585;50.864;4.406;2023-03-23T09:50:31;1.30;;;1.10;;
25731;SDS011;13585;50.864;4.406;2023-03-23T09:53:13;2.17;;;1.08;;
25731;SDS011;13585;50.864;4.406;2023-03-23T09:55:45;2.00;;;1.25;;
25731;SDS011;13585;50.864;4.406;2023-03-23T09:58:17;2.47;;;1.15;;
25731;SDS011;13585;50.864;4.406;2023-03-23T10:01:09;2.40;;;1.20;;
25731;SDS011;13585;50.864;4.406;2023-03-23T10:03:40;1.67;;;1.13;;
25731;SDS011;13585;50.864;4.406;2023-03-23T10:06:11;3.30;;;0.90;;
25731;SDS011;13585;50.864;4.406;2023-03-23T10:08:55;3.13;;;1.17;;
25731;SDS011;13585;50.864;4.406;2023-03-23T10:16:42;1.85;;;1.10;;
25731;SDS011;13585;50.864;4.406;2023-03-23T10:22:11;2.38;;;1.20;;
25731;SDS011;13585;50.864;4.406;2023-03-23T10:24:43;1.70;;;1.30;;
25731;SDS011;13585;50.864;4.406;2023-03-23T10:33:05;3.08;;;1.55;;
25731;SDS011;13585;50.864;4.406;2023-03-23T10:35:38;2.33;;;1.17;;
25731;SDS011;13585;50.864;4.406;2023-03-23T10:38:13;3.60;;;1.02;;
25731;SDS011;13585;50.864;4.406;2023-03-23T10:40:54;2.45;;;1.27;;
25731;SDS011;13585;50.864;4.406;2023-03-23T10:43:24;1.88;;;1.15;;
25731;SDS011;13585;50.864;4.406;2023-03-23T10:45:53;2.28;;;1.00;;
25731;SDS011;13585;50.864;4.406;2023-03-23T10:48:28;2.47;;;1.20;;
25731;SDS011;13585;50.864;4.406;2023-03-23T10:50:57;3.47;;;1.33;;
25731;SDS011;13585;50.864;4.406;2023-03-23T10:53:31;1.02;;;0.93;;
25731;SDS011;13585;50.864;4.406;2023-03-23T10:56:00;1.98;;;0.90;;
25731;SDS011;13585;50.864;4.406;2023-03-23T10:58:28;1.77;;;1.15;;
25731;SDS011;13585;50.864;4.406;2023-03-23T11:00:58;2.23;;;1.20;;
25731;SDS011;13585;50.864;4.406;2023-03-23T11:03:29;4.35;;;1.13;;
25731;SDS011;13585;50.864;4.406;2023-03-23T11:06:07;2.05;;;1.20;;
25731;SDS011;13585;50.864;4.406;2023-03-23T11:08:36;2.97;;;1.08;;
25731;SDS011;13585;50.864;4.406;2023-03-23T11:11:18;1.83;;;1.00;;
25731;SDS011;13585;50.864;4.406;2023-03-23T11:13:59;2.50;;;1.20;;
25731;SDS011;13585;50.864;4.406;2023-03-23T11:16:31;3.40;;;1.17;;
25731;SDS011;13585;50.864;4.406;2023-03-23T11:18:59;3.17;;;1.00;;
25731;SDS011;13585;50.864;4.406;2023-03-23T11:21:36;5.68;;;1.45;;
25731;SDS011;13585;50.864;4.406;2023-03-23T11:24:03;7.57;;;2.55;;
25731;SDS011;13585;50.864;4.406;2023-03-23T11:26:31;6.28;;;2.45;;
25731;SDS011;13585;50.864;4.406;2023-03-23T11:31:40;3.13;;;1.45;;
25731;SDS011;13585;50.864;4.406;2023-03-23T11:34:09;5.30;;;1.98;;
25731;SDS011;13585;50.864;4.406;2023-03-23T11:36:47;2.33;;;1.60;;
25731;SDS011;13585;50.864;4.406;2023-03-23T11:41:54;5.05;;;2.00;;
25731;SDS011;13585;50.864;4.406;2023-03-23T11:44:31;4.32;;;1.63;;
25731;SDS011;13585;50.864;4.406;2023-03-23T11:47:01;5.65;;;1.60;;
25731;SDS011;13585;50.864;4.406;2023-03-23T11:52:13;2.40;;;1.50;;
25731;SDS011;13585;50.864;4.406;2023-03-23T11:54:50;3.85;;;1.30;;
25731;SDS011;13585;50.864;4.406;2023-03-23T11:57:22;3.75;;;1.73;;
25731;SDS011;13585;50.864;4.406;2023-03-23T11:59:49;4.03;;;1.63;;
25731;SDS011;13585;50.864;4.406;2023-03-23T12:05:30;4.20;;;1.45;;
25731;SDS011;13585;50.864;4.406;2023-03-23T12:13:30;3.35;;;1.60;;
25731;SDS011;13585;50.864;4.406;2023-03-23T12:18:58;5.03;;;1.92;;
25731;SDS011;13585;50.864;4.406;2023-03-23T12:24:41;2.65;;;1.15;;
25731;SDS011;13585;50.864;4.406;2023-03-23T12:27:29;4.22;;;1.58;;
25731;SDS011;13585;50.864;4.406;2023-03-23T12:30:15;4.03;;;1.30;;
25731;SDS011;13585;50.864;4.406;2023-03-23T12:32:59;3.63;;;1.48;;
25731;SDS011;13585;50.864;4.406;2023-03-23T12:38:17;2.00;;;1.15;;
25731;SDS011;13585;50.864;4.406;2023-03-23T12:49:34;3.08;;;1.35;;
25731;SDS011;13585;50.864;4.406;2023-03-23T12:52:19;3.47;;;1.00;;
25731;SDS011;13585;50.864;4.406;2023-03-23T12:55:24;2.28;;;1.25;;
25731;SDS011;13585;50.864;4.406;2023-03-23T12:57:59;4.68;;;1.30;;
25731;SDS011;13585;50.864;4.406;2023-03-23T13:03:02;3.67;;;1.65;;
25731;SDS011;13585;50.864;4.406;2023-03-23T13:08:26;3.83;;;1.63;;
25731;SDS011;13585;50.864;4.406;2023-03-23T13:10:59;3.05;;;1.27;;
25731;SDS011;13585;50.864;4.406;2023-03-23T13:22:26;2.97;;;1.45;;
25731;SDS011;13585;50.864;4.406;2023-03-23T13:24:59;5.40;;;1.65;;
25731;SDS011;13585;50.864;4.406;2023-03-23T13:27:28;3.63;;;1.67;;
25731;SDS011;13585;50.864;4.406;2023-03-23T13:29:55;4.78;;;1.60;;
25731;SDS011;13585;50.864;4.406;2023-03-23T13:32:23;4.18;;;1.45;;
25731;SDS011;13585;50.864;4.406;2023-03-23T13:35:12;3.38;;;1.50;;
25731;SDS011;13585;50.864;4.406;2023-03-23T13:37:44;4.78;;;1.88;;
25731;SDS011;13585;50.864;4.406;2023-03-23T13:42:52;3.60;;;1.55;;
25731;SDS011;13585;50.864;4.406;2023-03-23T13:45:21;4.65;;;1.60;;
25731;SDS011;13585;50.864;4.406;2023-03-23T13:48:04;6.35;;;1.90;;
25731;SDS011;13585;50.864;4.406;2023-03-23T13:56:20;9.20;;;1.70;;
25731;SDS011;13585;50.864;4.406;2023-03-23T13:59:32;5.05;;;1.63;;
25731;SDS011;13585;50.864;4.406;2023-03-23T14:01:52;4.88;;;1.67;;
25731;SDS011;13585;50.864;4.406;2023-03-23T14:04:19;5.35;;;1.60;;
25731;SDS011;13585;50.864;4.406;2023-03-23T14:06:47;4.13;;;1.67;;
25731;SDS011;13585;50.864;4.406;2023-03-23T14:09:16;5.88;;;1.85;;
25731;SDS011;13585;50.864;4.406;2023-03-23T14:11:57;4.40;;;1.60;;
25731;SDS011;13585;50.864;4.406;2023-03-23T14:14:38;3.17;;;1.48;;
25731;SDS011;13585;50.864;4.406;2023-03-23T14:17:15;5.35;;;1.70;;
25731;SDS011;13585;50.864;4.406;2023-03-23T14:19:42;4.72;;;1.45;;
25731;SDS011;13585;50.864;4.406;2023-03-23T14:22:19;3.65;;;1.45;;
25731;SDS011;13585;50.864;4.406;2023-03-23T14:24:49;4.93;;;1.45;;
25731;SDS011;13585;50.864;4.406;2023-03-23T14:27:24;4.88;;;1.25;;
25731;SDS011;13585;50.864;4.406;2023-03-23T14:29:58;7.22;;;1.60;;
25731;SDS011;13585;50.864;4.406;2023-03-23T14:32:34;3.20;;;1.48;;
25731;SDS011;13585;50.864;4.406;2023-03-23T14:35:07;6.72;;;1.63;;
25731;SDS011;13585;50.864;4.406;2023-03-23T14:37:56;4.65;;;1.75;;
25731;SDS011;13585;50.864;4.406;2023-03-23T14:40:22;3.55;;;1.30;;
25731;SDS011;13585;50.864;4.406;2023-03-23T14:42:51;3.35;;;1.30;;
25731;SDS011;13585;50.864;4.406;2023-03-23T14:45:19;5.30;;;1.60;;
25731;SDS011;13585;50.864;4.406;2023-03-23T14:47:47;4.80;;;1.50;;
25731;SDS011;13585;50.864;4.406;2023-03-23T14:50:24;4.57;;;1.60;;
25731;SDS011;13585;50.864;4.406;2023-03-23T14:52:59;3.97;;;1.60;;
25731;SDS011;13585;50.864;4.406;2023-03-23T14:55:27;6.47;;;1.70;;
25731;SDS011;13585;50.864;4.406;2023-03-23T14:57:56;4.05;;;1.65;;
25731;SDS011;13585;50.864;4.406;2023-03-23T15:00:33;4.20;;;1.40;;
25731;SDS011;13585;50.864;4.406;2023-03-23T15:03:03;4.40;;;1.60;;
25731;SDS011;13585;50.864;4.406;2023-03-23T15:05:33;4.60;;;1.77;;
25731;SDS011;13585;50.864;4.406;2023-03-23T15:08:06;2.92;;;1.60;;
25731;SDS011;13585;50.864;4.406;2023-03-23T15:11:11;3.35;;;1.60;;
25731;SDS011;13585;50.864;4.406;2023-03-23T15:13:46;2.65;;;1.33;;
25731;SDS011;13585;50.864;4.406;2023-03-23T15:16:18;3.40;;;1.42;;
25731;SDS011;13585;50.864;4.406;2023-03-23T15:37:39;3.88;;;1.48;;
25731;SDS011;13585;50.864;4.406;2023-03-23T15:40:04;3.30;;;1.35;;
25731;SDS011;13585;50.864;4.406;2023-03-23T15:42:31;3.75;;;1.50;;
25731;SDS011;13585;50.864;4.406;2023-03-23T15:45:03;3.45;;;1.73;;
25731;SDS011;13585;50.864;4.406;2023-03-23T15:50:17;3.85;;;1.65;;
25731;SDS011;13585;50.864;4.406;2023-03-23T15:52:56;3.08;;;1.48;;
25731;SDS011;13585;50.864;4.406;2023-03-23T15:55:26;7.07;;;1.50;;
25731;SDS011;13585;50.864;4.406;2023-03-23T15:57:53;4.13;;;1.73;;
25731;SDS011;13585;50.864;4.406;2023-03-23T16:03:00;4.22;;;1.73;;
25731;SDS011;13585;50.864;4.406;2023-03-23T16:07:54;2.78;;;1.50;;
25731;SDS011;13585;50.864;4.406;2023-03-23T16:10:21;3.03;;;1.20;;
25731;SDS011;13585;50.864;4.406;2023-03-23T16:12:49;2.67;;;1.38;;
25731;SDS011;13585;50.864;4.406;2023-03-23T16:15:15;3.92;;;1.45;;
25731;SDS011;13585;50.864;4.406;2023-03-23T16:17:42;2.88;;;1.50;;
25731;SDS011;13585;50.864;4.406;2023-03-23T16:22:40;3.90;;;1.42;;
25731;SDS011;13585;50.864;4.406;2023-03-23T16:25:06;3.35;;;1.40;;
25731;SDS011;13585;50.864;4.406;2023-03-23T16:27:33;3.80;;;1.60;;
25731;SDS011;13585;50.864;4.406;2023-03-23T16:29:58;5.10;;;1.70;;
25731;SDS011;13585;50.864;4.406;2023-03-23T16:32:24;3.70;;;1.30;;
25731;SDS011;13585;50.864;4.406;2023-03-23T16:34:50;4.80;;;1.48;;
25731;SDS011;13585;50.864;4.406;2023-03-23T16:37:16;4.90;;;1.77;;
25731;SDS011;13585;50.864;4.406;2023-03-23T16:39:42;4.13;;;1.63;;
25731;SDS011;13585;50.864;4.406;2023-03-23T16:42:07;4.75;;;1.60;;
25731;SDS011;13585;50.864;4.406;2023-03-23T16:44:33;5.07;;;1.60;;
25731;SDS011;13585;50.864;4.406;2023-03-23T16:46:59;4.32;;;2.00;;
25731;SDS011;13585;50.864;4.406;2023-03-23T16:49:24;3.55;;;1.65;;
25731;SDS011;13585;50.864;4.406;2023-03-23T16:51:50;5.45;;;1.70;;
25731;SDS011;13585;50.864;4.406;2023-03-23T16:54:16;4.90;;;1.60;;
25731;SDS011;13585;50.864;4.406;2023-03-23T16:56:41;5.20;;;1.70;;
25731;SDS011;13585;50.864;4.406;2023-03-23T16:59:10;4.53;;;1.90;;
25731;SDS011;13585;50.864;4.406;2023-03-23T17:01:37;5.30;;;1.95;;
25731;SDS011;13585;50.864;4.406;2023-03-23T17:04:03;3.97;;;1.73;;
25731;SDS011;13585;50.864;4.406;2023-03-23T17:06:29;2.97;;;1.58;;
25731;SDS011;13585;50.864;4.406;2023-03-23T17:08:57;5.90;;;1.75;;
25731;SDS011;13585;50.864;4.406;2023-03-23T17:11:23;5.70;;;1.73;;
25731;SDS011;13585;50.864;4.406;2023-03-23T17:13:48;3.35;;;1.40;;
25731;SDS011;13585;50.864;4.406;2023-03-23T17:16:14;3.88;;;1.48;;
25731;SDS011;13585;50.864;4.406;2023-03-23T17:18:40;3.70;;;1.80;;
25731;SDS011;13585;50.864;4.406;2023-03-23T17:21:05;3.72;;;1.50;;
25731;SDS011;13585;50.864;4.406;2023-03-23T17:23:31;4.03;;;1.60;;
25731;SDS011;13585;50.864;4.406;2023-03-23T17:25:57;3.35;;;1.60;;
25731;SDS011;13585;50.864;4.406;2023-03-23T17:28:23;3.60;;;1.27;;
25731;SDS011;13585;50.864;4.406;2023-03-23T17:30:50;3.47;;;1.52;;
25731;SDS011;13585;50.864;4.406;2023-03-23T17:33:16;4.20;;;1.90;;
25731;SDS011;13585;50.864;4.406;2023-03-23T17:35:44;3.95;;;1.88;;
25731;SDS011;13585;50.864;4.406;2023-03-23T17:38:10;4.53;;;1.92;;
25731;SDS011;13585;50.864;4.406;2023-03-23T17:40:36;5.07;;;1.77;;
25731;SDS011;13585;50.864;4.406;2023-03-23T17:43:02;4.43;;;1.80;;
25731;SDS011;13585;50.864;4.406;2023-03-23T17:45:28;6.35;;;2.15;;
25731;SDS011;13585;50.864;4.406;2023-03-23T17:47:59;5.03;;;2.22;;